createdAt,value
2023-01-19T00:00:02.803Z,7.46
2023-01-19T00:01:02.762Z,7.45
2023-01-19T00:01:43.798Z,7.53
2023-01-19T00:02:23.787Z,7.45
2023-01-19T00:03:03.842Z,7.51
2023-01-19T00:03:43.727Z,7.46
2023-01-19T00:04:23.822Z,7.44
2023-01-19T00:05:05.763Z,7.38
2023-01-19T00:05:46.002Z,7.46
2023-01-19T00:06:27.880Z,7.24
2023-01-19T00:07:07.794Z,7.35
2023-01-19T00:07:48.753Z,7.37
2023-01-19T00:08:28.791Z,7.32
2023-01-19T00:09:08.726Z,7.50
2023-01-19T00:09:48.791Z,7.49
2023-01-19T00:10:28.750Z,7.43
2023-01-19T00:11:09.775Z,7.41
2023-01-19T00:11:49.760Z,7.36
2023-01-19T00:12:29.802Z,7.35
2023-01-19T00:13:09.720Z,7.52
2023-01-19T00:13:50.655Z,7.51
2023-01-19T00:14:30.722Z,7.38
2023-01-19T00:15:11.766Z,7.54
2023-01-19T00:15:51.773Z,7.55
2023-01-19T00:16:31.918Z,7.40
2023-01-19T00:17:11.743Z,7.49
2023-01-19T00:17:51.763Z,7.45
2023-01-19T00:18:32.722Z,7.37
2023-01-19T00:19:13.793Z,7.48
2023-01-19T00:19:53.717Z,7.39
2023-01-19T00:20:35.471Z,7.36
2023-01-19T00:21:15.720Z,7.34
2023-01-19T00:21:55.766Z,7.41
2023-01-19T00:22:35.774Z,7.47
2023-01-19T00:23:15.767Z,7.34
2023-01-19T00:23:57.698Z,7.40
2023-01-19T00:24:38.784Z,7.44
2023-01-19T00:25:18.743Z,7.36
2023-01-19T00:25:58.799Z,7.47
2023-01-19T00:26:38.718Z,7.43
2023-01-19T00:27:18.798Z,7.36
2023-01-19T00:28:00.621Z,7.46
2023-01-19T00:28:41.765Z,7.33
2023-01-19T00:29:22.726Z,7.34
2023-01-19T00:30:02.754Z,7.39
2023-01-19T00:30:42.711Z,7.45
2023-01-19T00:31:22.805Z,7.44
2023-01-19T00:32:03.725Z,7.40
2023-01-19T00:32:43.802Z,7.30
2023-01-19T00:33:23.721Z,7.24
2023-01-19T00:34:03.759Z,7.10
2023-01-19T00:34:45.702Z,7.18
2023-01-19T00:35:25.806Z,6.99
2023-01-19T00:36:13.698Z,6.88
2023-01-19T00:36:47.746Z,6.63
2023-01-19T00:37:34.700Z,6.70
2023-01-19T00:38:09.773Z,6.65
2023-01-19T00:38:49.727Z,6.52
2023-01-19T00:39:29.754Z,6.50
2023-01-19T00:40:10.701Z,6.32
2023-01-19T00:40:50.769Z,6.41
2023-01-19T00:41:51.699Z,6.22
2023-01-19T00:42:40.541Z,6.40
2023-01-19T00:43:20.687Z,6.28
2023-01-19T00:44:07.697Z,6.32
2023-01-19T00:45:03.694Z,6.30
2023-01-19T00:45:59.825Z,6.38
2023-01-19T00:46:53.696Z,6.27
2023-01-19T00:47:47.694Z,6.38
2023-01-19T00:48:41.689Z,6.32
2023-01-19T00:49:28.693Z,6.09
2023-01-19T00:50:02.807Z,6.23
2023-01-19T00:50:49.715Z,6.00
2023-01-19T00:51:23.751Z,6.16
2023-01-19T00:52:11.699Z,6.16
2023-01-19T00:52:47.752Z,6.33
2023-01-19T00:53:38.714Z,6.20
2023-01-19T00:54:12.815Z,6.16
2023-01-19T00:54:52.712Z,6.18
2023-01-19T00:55:33.827Z,6.28
2023-01-19T00:56:14.678Z,6.28
2023-01-19T00:56:54.724Z,6.09
2023-01-19T00:57:35.709Z,6.15
2023-01-19T00:58:15.769Z,6.29
2023-01-19T00:58:55.679Z,6.16
2023-01-19T00:59:35.747Z,6.29
2023-01-19T01:00:21.702Z,6.12
2023-01-19T01:01:04.700Z,6.28
2023-01-19T01:01:46.327Z,6.17
2023-01-19T01:02:26.938Z,6.32
2023-01-19T01:03:06.714Z,6.37
2023-01-19T01:03:46.732Z,6.31
2023-01-19T01:04:26.682Z,6.33
2023-01-19T01:05:06.762Z,6.34
2023-01-19T01:05:48.708Z,6.27
2023-01-19T01:06:29.726Z,6.35
2023-01-19T01:07:10.666Z,6.35
2023-01-19T01:07:50.838Z,6.27
2023-01-19T01:08:31.678Z,6.31
2023-01-19T01:09:11.960Z,6.36
2023-01-19T01:09:52.658Z,6.36
2023-01-19T01:10:35.842Z,6.27
2023-01-19T01:11:15.689Z,6.23
2023-01-19T01:11:56.613Z,6.15
2023-01-19T01:12:36.722Z,6.32
2023-01-19T01:13:20.714Z,6.11
2023-01-19T01:14:03.672Z,6.27
2023-01-19T01:14:43.812Z,6.31
2023-01-19T01:15:25.721Z,6.16
2023-01-19T01:16:05.973Z,6.33
2023-01-19T01:16:46.774Z,6.28
2023-01-19T01:17:26.731Z,6.35
2023-01-19T01:18:07.677Z,6.37
2023-01-19T01:18:47.733Z,6.26
2023-01-19T01:19:27.689Z,6.27
2023-01-19T01:20:07.833Z,6.42
2023-01-19T01:20:47.653Z,6.33
2023-01-19T01:21:27.730Z,6.25
2023-01-19T01:22:08.671Z,6.25
2023-01-19T01:22:50.690Z,6.28
2023-01-19T01:23:30.664Z,6.22
2023-01-19T01:24:11.737Z,6.30
2023-01-19T01:24:51.656Z,6.16
2023-01-19T01:25:37.660Z,6.20
2023-01-19T01:26:18.644Z,6.01
2023-01-19T01:26:58.736Z,6.18
2023-01-19T01:27:38.658Z,6.26
2023-01-19T01:28:18.732Z,6.14
2023-01-19T01:28:58.654Z,6.07
2023-01-19T01:29:41.054Z,6.11
2023-01-19T01:30:21.667Z,6.30
2023-01-19T01:31:02.707Z,6.20
2023-01-19T01:31:43.698Z,6.21
2023-01-19T01:32:23.698Z,6.27
2023-01-19T01:33:04.488Z,6.04
2023-01-19T01:33:44.691Z,6.18
2023-01-19T01:34:25.647Z,6.32
2023-01-19T01:35:05.717Z,6.17
2023-01-19T01:35:46.634Z,6.03
2023-01-19T01:36:29.136Z,6.07
2023-01-19T01:37:09.654Z,6.03
2023-01-19T01:37:49.692Z,6.03
2023-01-19T01:38:29.656Z,6.06
2023-01-19T01:39:10.692Z,6.21
2023-01-19T01:39:50.635Z,6.31
2023-01-19T01:40:30.694Z,6.31
2023-01-19T01:41:11.632Z,6.27
2023-01-19T01:41:51.732Z,6.38
2023-01-19T01:42:38.623Z,6.51
2023-01-19T01:43:21.723Z,6.46
2023-01-19T01:44:09.675Z,6.43
2023-01-19T01:44:59.720Z,6.54
2023-01-19T01:45:46.674Z,6.30
2023-01-19T01:46:26.746Z,6.29
2023-01-19T01:47:07.673Z,6.41
2023-01-19T01:47:52.665Z,6.30
2023-01-19T01:48:37.618Z,6.23
2023-01-19T01:49:28.660Z,6.48
2023-01-19T01:50:29.642Z,6.47
2023-01-19T01:51:43.838Z,6.34
2023-01-19T01:52:39.639Z,6.52
2023-01-19T01:53:33.612Z,6.52
2023-01-19T01:54:36.669Z,6.49
2023-01-19T01:55:31.763Z,6.52
2023-01-19T01:56:30.684Z,6.36
2023-01-19T01:57:25.632Z,6.59
2023-01-19T01:58:20.864Z,6.34
2023-01-19T01:59:19.625Z,6.55
2023-01-19T02:00:01.647Z,6.52
2023-01-19T02:01:00.321Z,6.48
2023-01-19T02:02:00.692Z,6.36
2023-01-19T02:02:51.933Z,6.46
2023-01-19T02:03:32.646Z,6.46
2023-01-19T02:04:12.690Z,6.33
2023-01-19T02:04:57.625Z,6.26
2023-01-19T02:05:40.642Z,6.39
2023-01-19T02:06:14.745Z,6.50
2023-01-19T02:07:20.607Z,6.24
2023-01-19T02:08:33.345Z,6.30
2023-01-19T02:09:39.626Z,6.36
2023-01-19T02:10:32.508Z,6.28
2023-01-19T02:11:32.621Z,6.26
2023-01-19T02:12:32.207Z,6.06
2023-01-19T02:13:25.605Z,6.37
2023-01-19T02:14:05.752Z,6.17
2023-01-19T02:14:45.590Z,6.20
2023-01-19T02:15:26.698Z,6.12
2023-01-19T02:16:12.619Z,6.18
2023-01-19T02:16:55.670Z,6.28
2023-01-19T02:17:29.648Z,6.11
2023-01-19T02:18:17.598Z,6.22
2023-01-19T02:18:52.409Z,5.99
2023-01-19T02:19:49.585Z,6.19
2023-01-19T02:20:23.646Z,5.98
2023-01-19T02:21:38.598Z,5.93
2023-01-19T02:22:30.629Z,5.69
2023-01-19T02:23:33.598Z,5.89
2023-01-19T02:24:27.604Z,5.84
2023-01-19T02:25:22.590Z,5.78
2023-01-19T02:26:17.582Z,5.68
2023-01-19T02:27:11.581Z,5.78
2023-01-19T02:27:52.614Z,5.83
2023-01-19T02:28:33.655Z,5.71
2023-01-19T02:29:15.597Z,5.71
2023-01-19T02:29:55.650Z,5.56
2023-01-19T02:30:36.583Z,5.69
2023-01-19T02:31:17.230Z,5.75
2023-01-19T02:31:58.597Z,5.64
2023-01-19T02:32:38.656Z,5.65
2023-01-19T02:33:18.656Z,5.59
2023-01-19T02:33:59.802Z,5.44
2023-01-19T02:34:39.579Z,5.30
2023-01-19T02:35:19.644Z,5.53
2023-01-19T02:36:03.625Z,5.49
2023-01-19T02:37:06.737Z,5.33
2023-01-19T02:37:47.583Z,5.17
2023-01-19T02:38:35.625Z,5.21
2023-01-19T02:39:31.565Z,5.06
2023-01-19T02:40:28.576Z,4.94
2023-01-19T02:41:24.591Z,5.02
2023-01-19T02:42:32.636Z,4.95
2023-01-19T02:43:27.585Z,5.01
2023-01-19T02:44:08.604Z,4.95
2023-01-19T02:44:52.680Z,4.93
2023-01-19T02:45:33.574Z,4.84
2023-01-19T02:46:13.632Z,4.86
2023-01-19T02:46:53.568Z,4.62
2023-01-19T02:47:33.617Z,4.65
2023-01-19T02:48:14.571Z,4.55
2023-01-19T02:48:54.622Z,4.69
2023-01-19T02:49:36.598Z,4.67
2023-01-19T02:50:52.973Z,4.31
2023-01-19T02:51:33.560Z,4.29
2023-01-19T02:52:21.625Z,4.36
2023-01-19T02:53:28.544Z,4.38
2023-01-19T02:54:12.289Z,4.69
2023-01-19T02:55:27.577Z,4.58
2023-01-19T02:56:39.574Z,4.62
2023-01-19T02:57:32.569Z,4.46
2023-01-19T02:58:54.652Z,4.50
2023-01-19T03:00:14.545Z,4.82
2023-01-19T03:01:37.673Z,4.95
2023-01-19T03:02:39.642Z,4.86
2023-01-19T03:03:39.549Z,4.68
2023-01-19T03:04:43.594Z,4.67
2023-01-19T03:05:57.549Z,4.64
2023-01-19T03:06:50.594Z,4.72
2023-01-19T03:08:31.569Z,4.88
2023-01-19T03:09:41.556Z,4.65
2023-01-19T03:11:19.555Z,4.74
2023-01-19T03:12:33.553Z,4.42
2023-01-19T03:13:37.588Z,4.58
2023-01-19T03:14:29.554Z,4.66
2023-01-19T03:15:09.689Z,4.83
2023-01-19T03:16:35.607Z,4.68
2023-01-19T03:17:12.571Z,4.59
2023-01-19T03:17:56.566Z,4.50
2023-01-19T03:18:39.592Z,4.46
2023-01-19T03:19:27.575Z,4.49
2023-01-19T03:20:10.628Z,4.52
2023-01-19T03:20:51.609Z,4.42
2023-01-19T03:21:34.585Z,4.37
2023-01-19T03:22:25.531Z,4.47
2023-01-19T03:23:16.564Z,4.48
2023-01-19T03:24:14.521Z,4.32
2023-01-19T03:25:13.517Z,4.34
2023-01-19T03:26:09.528Z,4.38
2023-01-19T03:27:08.537Z,4.60
2023-01-19T03:28:04.553Z,4.56
2023-01-19T03:28:46.546Z,4.62
2023-01-19T03:29:29.600Z,4.61
2023-01-19T03:30:20.549Z,4.46
2023-01-19T03:31:08.693Z,4.46
2023-01-19T03:31:52.525Z,4.59
2023-01-19T03:32:41.548Z,4.66
2023-01-19T03:33:27.525Z,4.56
2023-01-19T03:34:13.574Z,4.51
2023-01-19T03:34:49.614Z,4.46
2023-01-19T03:35:39.522Z,4.44
2023-01-19T03:36:59.576Z,4.71
2023-01-19T03:37:51.520Z,4.47
2023-01-19T03:38:32.550Z,4.72
2023-01-19T03:39:25.535Z,4.58
2023-01-19T03:39:59.601Z,4.55
2023-01-19T03:40:47.542Z,4.32
2023-01-19T03:41:23.601Z,4.64
2023-01-19T03:42:18.512Z,4.46
2023-01-19T03:42:52.560Z,4.46
2023-01-19T03:43:40.510Z,4.50
2023-01-19T03:44:14.565Z,4.53
2023-01-19T03:44:57.509Z,4.41
2023-01-19T03:45:38.568Z,4.37
2023-01-19T03:46:19.589Z,4.53
2023-01-19T03:47:00.146Z,4.36
2023-01-19T03:47:41.520Z,4.31
2023-01-19T03:48:21.588Z,4.43
2023-01-19T03:49:02.512Z,4.51
2023-01-19T03:49:43.958Z,4.52
2023-01-19T03:50:36.534Z,4.36
2023-01-19T03:51:17.653Z,4.23
2023-01-19T03:51:58.498Z,4.16
2023-01-19T03:52:39.547Z,4.31
2023-01-19T03:53:22.505Z,4.22
2023-01-19T03:54:03.006Z,4.05
2023-01-19T03:54:42.499Z,4.04
2023-01-19T03:55:22.546Z,4.21
2023-01-19T03:56:03.515Z,4.09
2023-01-19T03:56:44.805Z,4.03
2023-01-19T03:57:25.495Z,4.19
2023-01-19T03:58:05.585Z,4.18
2023-01-19T03:58:45.483Z,4.22
2023-01-19T03:59:25.542Z,4.15
2023-01-19T04:00:05.498Z,4.38
2023-01-19T04:00:45.564Z,4.31
2023-01-19T04:01:29.624Z,4.27
2023-01-19T04:02:09.756Z,4.21
2023-01-19T04:02:49.538Z,4.36
2023-01-19T04:03:29.547Z,4.06
2023-01-19T04:04:09.487Z,4.36
2023-01-19T04:04:49.520Z,4.18
2023-01-19T04:05:30.473Z,4.20
2023-01-19T04:06:10.569Z,4.24
2023-01-19T04:06:50.525Z,4.33
2023-01-19T04:07:30.558Z,4.24
2023-01-19T04:08:10.485Z,4.37
2023-01-19T04:08:50.535Z,4.37
2023-01-19T04:09:32.473Z,4.41
2023-01-19T04:10:13.554Z,4.37
2023-01-19T04:10:53.478Z,4.42
2023-01-19T04:11:33.533Z,4.21
2023-01-19T04:12:14.508Z,4.43
2023-01-19T04:12:55.558Z,4.44
2023-01-19T04:13:36.490Z,4.47
2023-01-19T04:14:16.529Z,4.41
2023-01-19T04:14:56.506Z,4.21
2023-01-19T04:15:37.658Z,4.45
2023-01-19T04:16:18.496Z,4.36
2023-01-19T04:16:58.549Z,4.37
2023-01-19T04:17:39.483Z,4.40
2023-01-19T04:18:19.946Z,4.27
2023-01-19T04:18:59.495Z,4.17
2023-01-19T04:19:39.597Z,4.27
2023-01-19T04:20:19.476Z,4.39
2023-01-19T04:20:59.551Z,4.37
2023-01-19T04:21:40.470Z,4.52
2023-01-19T04:22:20.550Z,4.28
2023-01-19T04:23:05.481Z,4.26
2023-01-19T04:23:45.976Z,4.34
2023-01-19T04:24:25.458Z,4.23
2023-01-19T04:25:06.431Z,4.30
2023-01-19T04:25:47.476Z,4.14
2023-01-19T04:26:27.539Z,4.31
2023-01-19T04:27:07.476Z,4.20
2023-01-19T04:27:47.510Z,4.40
2023-01-19T04:28:27.488Z,4.23
2023-01-19T04:29:07.499Z,4.33
2023-01-19T04:29:48.449Z,4.38
2023-01-19T04:30:28.557Z,4.41
2023-01-19T04:31:08.491Z,4.42
2023-01-19T04:31:48.519Z,4.22
2023-01-19T04:32:28.472Z,4.36
2023-01-19T04:33:08.521Z,4.17
2023-01-19T04:33:49.486Z,4.29
2023-01-19T04:34:29.704Z,4.35
2023-01-19T04:35:10.454Z,4.30
2023-01-19T04:35:54.612Z,4.30
2023-01-19T04:36:35.450Z,4.22
2023-01-19T04:37:15.501Z,4.35
2023-01-19T04:37:56.446Z,4.28
2023-01-19T04:38:36.652Z,4.25
2023-01-19T04:39:18.505Z,4.16
2023-01-19T04:39:58.517Z,4.19
2023-01-19T04:40:38.458Z,4.22
2023-01-19T04:41:18.670Z,4.38
2023-01-19T04:41:59.443Z,4.29
2023-01-19T04:42:39.490Z,4.19
2023-01-19T04:43:20.460Z,4.29
2023-01-19T04:44:00.483Z,4.40
2023-01-19T04:44:40.463Z,4.30
2023-01-19T04:45:21.523Z,4.42
2023-01-19T04:46:02.465Z,4.50
2023-01-19T04:46:56.457Z,4.32
2023-01-19T04:47:50.464Z,4.33
2023-01-19T04:48:44.442Z,4.34
2023-01-19T04:49:38.449Z,4.29
2023-01-19T04:50:19.435Z,4.45
2023-01-19T04:50:59.499Z,4.39
2023-01-19T04:51:40.454Z,4.41
2023-01-19T04:52:20.498Z,4.41
2023-01-19T04:53:00.826Z,4.41
2023-01-19T04:53:41.636Z,4.34
2023-01-19T04:54:22.436Z,4.58
2023-01-19T04:55:02.450Z,4.74
2023-01-19T04:55:36.484Z,4.79
2023-01-19T04:56:23.422Z,4.70
2023-01-19T04:56:57.781Z,4.67
2023-01-19T04:57:44.427Z,4.62
2023-01-19T04:58:18.540Z,4.74
2023-01-19T04:59:05.455Z,4.48
2023-01-19T04:59:40.105Z,4.64
2023-01-19T05:00:28.450Z,4.69
2023-01-19T05:01:02.507Z,4.66
2023-01-19T05:01:49.452Z,4.55
2023-01-19T05:02:23.471Z,4.79
2023-01-19T05:03:11.546Z,4.78
2023-01-19T05:03:45.480Z,4.62
2023-01-19T05:04:33.452Z,4.72
2023-01-19T05:05:08.492Z,4.60
2023-01-19T05:05:48.442Z,4.51
2023-01-19T05:06:28.530Z,4.63
2023-01-19T05:07:08.431Z,4.68
2023-01-19T05:07:49.468Z,4.64
2023-01-19T05:08:30.406Z,4.71
2023-01-19T05:09:13.119Z,4.55
2023-01-19T05:09:53.419Z,4.63
2023-01-19T05:10:33.474Z,4.77
2023-01-19T05:11:13.456Z,4.89
2023-01-19T05:11:53.543Z,4.92
2023-01-19T05:12:34.443Z,4.87
2023-01-19T05:13:14.501Z,5.00
2023-01-19T05:13:54.417Z,4.91
2023-01-19T05:14:34.512Z,4.87
2023-01-19T05:15:16.420Z,4.83
2023-01-19T05:15:56.475Z,4.73
2023-01-19T05:16:36.426Z,4.68
2023-01-19T05:17:16.450Z,4.83
2023-01-19T05:17:56.413Z,4.78
2023-01-19T05:18:37.526Z,4.75
2023-01-19T05:19:17.428Z,4.76
2023-01-19T05:19:57.468Z,4.96
2023-01-19T05:20:37.424Z,4.79
2023-01-19T05:21:17.499Z,4.87
2023-01-19T05:21:58.428Z,4.80
2023-01-19T05:22:39.209Z,5.10
2023-01-19T05:23:19.394Z,5.17
2023-01-19T05:23:53.064Z,5.07
2023-01-19T05:24:40.457Z,5.08
2023-01-19T05:25:14.086Z,5.13
2023-01-19T05:26:02.417Z,5.11
2023-01-19T05:26:36.189Z,5.22
2023-01-19T05:27:23.428Z,5.10
2023-01-19T05:27:57.089Z,5.18
2023-01-19T05:28:45.447Z,5.16
2023-01-19T05:29:19.082Z,5.02
2023-01-19T05:30:06.375Z,5.26
2023-01-19T05:30:40.171Z,5.18
2023-01-19T05:31:27.541Z,5.21
2023-01-19T05:32:01.755Z,5.12
2023-01-19T05:32:48.428Z,5.01
2023-01-19T05:33:25.356Z,5.10
2023-01-19T05:34:12.397Z,5.14
2023-01-19T05:34:47.097Z,5.26
2023-01-19T05:35:36.565Z,5.30
2023-01-19T05:36:10.171Z,5.18
2023-01-19T05:36:57.380Z,5.16
2023-01-19T05:37:32.602Z,5.16
2023-01-19T05:38:14.531Z,5.17
2023-01-19T05:38:48.529Z,5.00
2023-01-19T05:39:22.195Z,5.29
2023-01-19T05:40:02.393Z,5.16
2023-01-19T05:40:36.448Z,5.16
2023-01-19T05:41:10.083Z,5.10
2023-01-19T05:41:52.368Z,5.12
2023-01-19T05:42:26.438Z,5.11
2023-01-19T05:43:01.139Z,5.27
2023-01-19T05:43:41.482Z,5.26
2023-01-19T05:44:16.500Z,5.04
2023-01-19T05:44:50.098Z,5.24
2023-01-19T05:45:30.397Z,5.31
2023-01-19T05:46:04.931Z,5.35
2023-01-19T05:46:39.981Z,5.25
2023-01-19T05:47:21.392Z,5.33
2023-01-19T05:47:55.725Z,5.26
2023-01-19T05:48:29.189Z,5.33
2023-01-19T05:49:11.380Z,5.24
2023-01-19T05:49:45.496Z,5.13
2023-01-19T05:50:19.081Z,5.39
2023-01-19T05:51:05.405Z,5.34
2023-01-19T05:51:45.231Z,5.38
2023-01-19T05:52:19.073Z,5.23
2023-01-19T05:52:59.672Z,5.08
2023-01-19T05:53:34.483Z,5.30
2023-01-19T05:54:09.968Z,5.32
2023-01-19T05:54:50.376Z,5.22
2023-01-19T05:55:24.442Z,5.46
2023-01-19T05:56:10.584Z,5.36
2023-01-19T05:56:50.387Z,5.27
2023-01-19T05:57:26.460Z,5.37
2023-01-19T05:58:00.371Z,5.36
2023-01-19T05:58:41.382Z,5.28
2023-01-19T05:59:17.418Z,5.42
2023-01-19T05:59:57.396Z,5.41
2023-01-19T06:00:37.411Z,5.39
2023-01-19T06:01:17.427Z,5.43
2023-01-19T06:01:59.910Z,5.45
2023-01-19T06:02:40.363Z,5.46
2023-01-19T06:03:20.503Z,5.43
2023-01-19T06:04:01.410Z,5.40
2023-01-19T06:04:41.470Z,5.54
2023-01-19T06:05:22.404Z,5.64
2023-01-19T06:06:04.421Z,5.33
2023-01-19T06:06:44.360Z,5.50
2023-01-19T06:07:25.655Z,5.52
2023-01-19T06:08:06.346Z,5.47
2023-01-19T06:08:46.442Z,5.54
2023-01-19T06:09:26.367Z,5.63
2023-01-19T06:10:06.430Z,5.62
2023-01-19T06:10:46.403Z,5.65
2023-01-19T06:11:26.429Z,5.50
2023-01-19T06:12:08.382Z,5.56
2023-01-19T06:12:49.512Z,5.62
2023-01-19T06:13:29.345Z,5.50
2023-01-19T06:14:09.399Z,5.48
2023-01-19T06:14:49.335Z,5.49
2023-01-19T06:15:29.417Z,5.33
2023-01-19T06:16:10.401Z,5.42
2023-01-19T06:16:50.513Z,5.57
2023-01-19T06:17:30.354Z,5.47
2023-01-19T06:18:10.395Z,5.50
2023-01-19T06:18:50.352Z,5.64
2023-01-19T06:19:30.502Z,5.67
2023-01-19T06:20:12.368Z,5.56
2023-01-19T06:20:52.541Z,5.41
2023-01-19T06:21:32.375Z,5.50
2023-01-19T06:22:12.421Z,5.28
2023-01-19T06:22:52.359Z,5.32
2023-01-19T06:23:35.421Z,5.53
2023-01-19T06:24:16.347Z,5.48
2023-01-19T06:24:56.434Z,5.45
2023-01-19T06:25:36.353Z,5.46
2023-01-19T06:26:16.390Z,5.28
2023-01-19T06:26:56.363Z,5.34
2023-01-19T06:27:36.493Z,5.50
2023-01-19T06:28:17.339Z,5.29
2023-01-19T06:28:58.435Z,5.27
2023-01-19T06:29:38.345Z,5.39
2023-01-19T06:30:19.456Z,5.41
2023-01-19T06:31:01.389Z,5.42
2023-01-19T06:31:41.761Z,5.48
2023-01-19T06:32:22.353Z,5.47
2023-01-19T06:33:02.737Z,5.21
2023-01-19T06:33:43.342Z,5.19
2023-01-19T06:34:27.152Z,5.35
2023-01-19T06:35:07.317Z,5.42
2023-01-19T06:35:54.408Z,5.40
2023-01-19T06:36:34.347Z,5.32
2023-01-19T06:37:16.588Z,5.43
2023-01-19T06:37:56.363Z,5.52
2023-01-19T06:38:36.426Z,5.28
2023-01-19T06:39:17.334Z,5.23
2023-01-19T06:39:57.383Z,5.11
2023-01-19T06:40:37.324Z,5.09
2023-01-19T06:41:17.369Z,5.08
2023-01-19T06:41:57.313Z,5.18
2023-01-19T06:42:37.405Z,4.92
2023-01-19T06:43:17.365Z,5.04
2023-01-19T06:43:57.418Z,5.18
2023-01-19T06:44:38.335Z,5.29
2023-01-19T06:45:18.363Z,5.23
2023-01-19T06:45:58.382Z,5.16
2023-01-19T06:46:39.437Z,5.12
2023-01-19T06:47:26.323Z,5.09
2023-01-19T06:48:00.396Z,5.04
2023-01-19T06:48:41.356Z,4.96
2023-01-19T06:49:21.388Z,4.83
2023-01-19T06:50:01.325Z,4.98
2023-01-19T06:50:41.515Z,4.76
2023-01-19T06:51:21.335Z,4.89
2023-01-19T06:52:01.388Z,5.05
2023-01-19T06:52:48.314Z,4.93
2023-01-19T06:53:30.051Z,4.79
2023-01-19T06:54:10.319Z,4.72
2023-01-19T06:54:51.346Z,4.56
2023-01-19T06:55:32.326Z,4.55
2023-01-19T06:56:13.372Z,4.70
2023-01-19T06:56:54.331Z,4.75
2023-01-19T06:57:34.373Z,4.74
2023-01-19T06:58:15.326Z,4.68
2023-01-19T06:58:55.551Z,4.63
2023-01-19T06:59:38.203Z,4.57
2023-01-19T07:00:21.413Z,4.70
2023-01-19T07:01:02.394Z,4.38
2023-01-19T07:01:42.412Z,4.34
2023-01-19T07:02:28.618Z,4.47
2023-01-19T07:03:09.486Z,4.50
2023-01-19T07:03:49.312Z,4.51
2023-01-19T07:04:29.414Z,4.51
2023-01-19T07:05:10.311Z,4.47
2023-01-19T07:05:50.407Z,4.64
2023-01-19T07:06:31.293Z,4.45
2023-01-19T07:07:11.344Z,4.43
2023-01-19T07:07:52.272Z,4.36
2023-01-19T07:08:32.387Z,4.22
2023-01-19T07:09:16.940Z,4.23
2023-01-19T07:09:57.366Z,4.10
2023-01-19T07:11:22.251Z,4.32
2023-01-19T07:11:38.392Z,4.21
2023-01-19T07:12:18.284Z,4.19
2023-01-19T07:12:58.903Z,4.19
2023-01-19T07:13:41.284Z,4.34
2023-01-19T07:14:21.389Z,4.19
2023-01-19T07:15:01.322Z,4.05
2023-01-19T07:15:48.329Z,3.94
2023-01-19T07:16:42.349Z,4.09
2023-01-19T07:17:36.306Z,4.10
2023-01-19T07:18:30.295Z,4.02
2023-01-19T07:19:24.295Z,4.21
2023-01-19T07:20:22.268Z,4.16
2023-01-19T07:21:10.305Z,4.04
2023-01-19T07:21:44.439Z,4.21
2023-01-19T07:22:31.304Z,4.05
2023-01-19T07:23:05.341Z,4.10
2023-01-19T07:23:56.289Z,4.08
2023-01-19T07:24:30.701Z,4.12
2023-01-19T07:25:17.286Z,4.08
2023-01-19T07:25:52.312Z,4.06
2023-01-19T07:26:34.306Z,4.10
2023-01-19T07:27:16.273Z,4.08
2023-01-19T07:27:56.305Z,3.95
2023-01-19T07:28:37.415Z,3.99
2023-01-19T07:29:17.290Z,4.16
2023-01-19T07:29:57.351Z,4.20
2023-01-19T07:30:37.367Z,4.15
2023-01-19T07:31:18.449Z,4.17
2023-01-19T07:32:01.309Z,4.04
2023-01-19T07:32:42.538Z,4.06
2023-01-19T07:33:22.275Z,4.03
2023-01-19T07:34:02.327Z,4.15
2023-01-19T07:34:43.299Z,4.21
2023-01-19T07:35:23.334Z,4.06
2023-01-19T07:36:03.274Z,4.30
2023-01-19T07:36:44.033Z,4.33
2023-01-19T07:37:24.289Z,4.24
2023-01-19T07:38:05.307Z,4.21
2023-01-19T07:38:45.269Z,4.13
2023-01-19T07:39:40.274Z,4.23
2023-01-19T07:40:34.250Z,4.31
2023-01-19T07:41:28.287Z,4.23
2023-01-19T07:42:22.268Z,4.38
2023-01-19T07:43:02.679Z,4.23
2023-01-19T07:43:43.543Z,4.11
2023-01-19T07:44:23.271Z,4.35
2023-01-19T07:45:04.220Z,4.35
2023-01-19T07:45:44.275Z,4.28
2023-01-19T07:46:38.263Z,4.20
2023-01-19T07:47:32.312Z,4.13
2023-01-19T07:48:26.310Z,3.94
2023-01-19T07:49:20.267Z,4.06
2023-01-19T07:50:14.263Z,3.97
2023-01-19T07:51:18.244Z,4.07
2023-01-19T07:52:12.243Z,4.29
2023-01-19T07:52:52.303Z,4.37
2023-01-19T07:53:32.710Z,4.32
2023-01-19T07:54:15.314Z,4.34
2023-01-19T07:54:55.458Z,4.19
2023-01-19T07:55:36.380Z,4.45
2023-01-19T07:56:16.318Z,4.27
2023-01-19T07:56:56.269Z,4.32
2023-01-19T07:57:36.308Z,4.32
2023-01-19T07:58:16.276Z,4.31
2023-01-19T07:58:56.287Z,4.14
2023-01-19T07:59:39.243Z,4.26
2023-01-19T08:00:21.910Z,4.22
2023-01-19T08:01:02.347Z,4.27
2023-01-19T08:01:42.520Z,4.05
2023-01-19T08:02:22.341Z,4.06
2023-01-19T08:03:09.054Z,4.27
2023-01-19T08:03:49.251Z,4.32
2023-01-19T08:04:29.356Z,4.15
2023-01-19T08:05:10.235Z,4.19
2023-01-19T08:05:51.329Z,4.38
2023-01-19T08:06:39.231Z,4.35
2023-01-19T08:07:19.320Z,4.36
2023-01-19T08:07:59.273Z,4.26
2023-01-19T08:08:40.286Z,4.46
2023-01-19T08:09:20.260Z,4.21
2023-01-19T08:10:00.291Z,4.20
2023-01-19T08:10:41.253Z,4.14
2023-01-19T08:11:21.415Z,4.21
2023-01-19T08:12:01.229Z,4.37
2023-01-19T08:12:42.439Z,4.33
2023-01-19T08:13:22.319Z,4.37
2023-01-19T08:14:02.491Z,4.46
2023-01-19T08:14:42.254Z,4.35
2023-01-19T08:15:24.540Z,4.46
2023-01-19T08:16:04.246Z,4.59
2023-01-19T08:16:45.345Z,4.55
2023-01-19T08:17:46.529Z,4.43
2023-01-19T08:18:27.278Z,4.31
2023-01-19T08:19:08.242Z,4.30
2023-01-19T08:19:57.259Z,4.31
2023-01-19T08:20:51.248Z,3.89
2023-01-19T08:21:45.251Z,4.17
2023-01-19T08:22:39.217Z,4.09
2023-01-19T08:23:34.223Z,3.98
2023-01-19T08:24:37.223Z,4.18
2023-01-19T08:25:17.486Z,4.08
2023-01-19T08:26:27.244Z,4.11
2023-01-19T08:27:09.219Z,4.09
2023-01-19T08:28:10.238Z,3.98
2023-01-19T08:29:08.216Z,4.23
2023-01-19T08:30:02.271Z,4.22
2023-01-19T08:30:43.333Z,4.37
2023-01-19T08:31:24.965Z,4.41
2023-01-19T08:32:08.534Z,4.37
2023-01-19T08:33:43.215Z,4.31
2023-01-19T08:34:23.313Z,4.39
2023-01-19T08:35:03.224Z,4.32
2023-01-19T08:35:55.241Z,4.32
2023-01-19T08:36:49.212Z,4.36
2023-01-19T08:37:43.213Z,4.28
2023-01-19T08:38:37.202Z,4.41
2023-01-19T08:39:31.243Z,4.33
2023-01-19T08:40:26.240Z,4.30
2023-01-19T08:41:14.240Z,4.42
2023-01-19T08:41:48.254Z,4.42
2023-01-19T08:42:36.207Z,4.34
2023-01-19T08:43:20.262Z,4.20
2023-01-19T08:44:07.189Z,4.17
2023-01-19T08:44:49.690Z,4.29
2023-01-19T08:45:54.202Z,4.34
2023-01-19T08:46:35.270Z,4.32
2023-01-19T08:47:29.318Z,4.38
2023-01-19T08:48:23.217Z,4.48
2023-01-19T08:49:17.208Z,4.38
2023-01-19T08:50:11.210Z,4.48
2023-01-19T08:51:07.194Z,4.45
2023-01-19T08:51:55.223Z,4.31
2023-01-19T08:52:29.337Z,4.59
2023-01-19T08:53:17.201Z,4.67
2023-01-19T08:53:51.258Z,4.54
2023-01-19T08:54:38.205Z,4.76
2023-01-19T08:55:13.240Z,4.85
2023-01-19T08:56:06.177Z,4.79
2023-01-19T08:56:40.267Z,4.68
2023-01-19T08:57:22.239Z,4.61
2023-01-19T08:58:04.498Z,4.65
2023-01-19T08:58:59.530Z,4.82
2023-01-19T08:59:48.304Z,4.72
2023-01-19T09:00:29.184Z,4.79
2023-01-19T09:01:09.352Z,4.87
2023-01-19T09:01:50.402Z,4.84
2023-01-19T09:02:37.292Z,4.83
2023-01-19T09:03:31.190Z,4.82
2023-01-19T09:04:25.201Z,4.66
2023-01-19T09:05:20.165Z,4.83
2023-01-19T09:06:15.204Z,4.57
2023-01-19T09:07:09.195Z,4.68
2023-01-19T09:07:58.219Z,4.71
2023-01-19T09:08:32.209Z,4.73
2023-01-19T09:09:19.218Z,4.80
2023-01-19T09:09:53.206Z,4.86
2023-01-19T09:10:44.201Z,4.61
2023-01-19T09:11:20.413Z,4.80
2023-01-19T09:12:07.177Z,4.74
2023-01-19T09:12:41.274Z,4.82
2023-01-19T09:13:22.219Z,4.76
2023-01-19T09:14:02.251Z,4.90
2023-01-19T09:14:42.200Z,4.93
2023-01-19T09:15:22.223Z,4.70
2023-01-19T09:16:02.208Z,4.79
2023-01-19T09:16:42.213Z,4.76
2023-01-19T09:17:24.165Z,4.85
2023-01-19T09:18:04.587Z,4.87
2023-01-19T09:18:44.190Z,4.78
2023-01-19T09:19:24.231Z,4.87
2023-01-19T09:20:05.196Z,4.79
2023-01-19T09:20:46.228Z,4.82
2023-01-19T09:21:26.148Z,4.71
2023-01-19T09:22:06.239Z,4.76
2023-01-19T09:22:47.241Z,4.82
2023-01-19T09:23:27.238Z,4.56
2023-01-19T09:24:07.174Z,4.59
2023-01-19T09:24:47.190Z,4.71
2023-01-19T09:25:27.175Z,4.81
2023-01-19T09:26:12.241Z,4.73
2023-01-19T09:26:53.159Z,4.57
2023-01-19T09:27:33.202Z,4.50
2023-01-19T09:28:16.173Z,4.53
2023-01-19T09:28:56.205Z,4.51
2023-01-19T09:29:36.162Z,4.30
2023-01-19T09:30:17.778Z,4.53
2023-01-19T09:30:59.179Z,4.43
2023-01-19T09:31:40.146Z,4.33
2023-01-19T09:32:20.154Z,4.34
2023-01-19T09:33:00.198Z,4.27
2023-01-19T09:33:41.135Z,4.53
2023-01-19T09:34:22.734Z,4.43
2023-01-19T09:35:04.175Z,4.40
2023-01-19T09:35:46.199Z,4.46
2023-01-19T09:36:26.164Z,4.35
2023-01-19T09:37:06.227Z,4.46
2023-01-19T09:37:46.138Z,4.57
2023-01-19T09:38:31.377Z,4.32
2023-01-19T09:39:11.138Z,4.45
2023-01-19T09:39:51.247Z,4.27
2023-01-19T09:40:32.168Z,4.47
2023-01-19T09:41:27.291Z,4.62
2023-01-19T09:42:18.121Z,4.38